Time;durP1;ratioP1;P1;durP2;ratioP2;P2;SDS_P1;SDS_P2;PMS_P1;PMS_P2;Temp;Humidity;BMP_temperature;BMP_pressure;BME280_temperature;BME280_humidity;BME280_pressure;Samples;Min_cycle;Max_cycle;Signal;HPM_P1;HPM_P2
2023/12/16 00:00:51;;;;;;;14.83;3.90;;;;;;;;;;5016211;28;20496;-64
2023/12/16 00:03:17;;;;;;;12.23;3.47;;;;;;;;;;5025527;28;20084;-64
2023/12/16 00:05:43;;;;;;;16.60;3.87;;;;;;;;;;5030131;28;20064;-64
2023/12/16 00:08:09;;;;;;;16.97;4.63;;;;;;;;;;5030102;28;20052;-64
2023/12/16 00:10:35;;;;;;;13.00;2.83;;;;;;;;;;5029249;28;20041;-64
2023/12/16 00:13:01;;;;;;;14.43;2.27;;;;;;;;;;5030127;28;20132;-63
2023/12/16 00:15:27;;;;;;;9.67;2.87;;;;;;;;;;5029502;28;20076;-64
2023/12/16 00:17:53;;;;;;;12.23;3.17;;;;;;;;;;5028447;28;20048;-64
2023/12/16 00:20:19;;;;;;;19.67;3.80;;;;;;;;;;5029317;28;20045;-64
2023/12/16 00:22:46;;;;;;;11.10;3.30;;;;;;;;;;5029297;28;20045;-64
2023/12/16 00:25:12;;;;;;;10.90;3.30;;;;;;;;;;5029021;28;20107;-64
2023/12/16 00:27:38;;;;;;;16.00;3.37;;;;;;;;;;5028868;28;20050;-64
2023/12/16 00:30:05;;;;;;;19.23;3.97;;;;;;;;;;5029166;28;20052;-64
2023/12/16 00:32:31;;;;;;;12.47;3.40;;;;;;;;;;5028829;28;20495;-64
2023/12/16 00:34:57;;;;;;;14.63;3.17;;;;;;;;;;5029597;28;20041;-64
2023/12/16 00:37:23;;;;;;;12.23;3.17;;;;;;;;;;5029802;28;20038;-61
2023/12/16 00:39:49;;;;;;;11.97;3.83;;;;;;;;;;5029649;28;20049;-61
2023/12/16 00:42:15;;;;;;;11.60;3.70;;;;;;;;;;5028289;28;20057;-61
2023/12/16 00:44:41;;;;;;;10.40;3.60;;;;;;;;;;5029219;28;20080;-61
2023/12/16 00:47:07;;;;;;;18.17;3.33;;;;;;;;;;5029803;28;20052;-61
2023/12/16 00:49:33;;;;;;;22.67;4.10;;;;;;;;;;5029679;28;20061;-61
2023/12/16 00:51:59;;;;;;;12.43;4.47;;;;;;;;;;5028941;28;20504;-61
2023/12/16 00:54:26;;;;;;;12.60;3.50;;;;;;;;;;5029177;28;20081;-61
2023/12/16 00:56:53;;;;;;;16.40;3.97;;;;;;;;;;5029627;28;20049;-61
2023/12/16 00:59:22;;;;;;;21.43;5.70;;;;;;;;;;5029344;28;20081;-63
2023/12/16 01:01:48;;;;;;;15.23;4.23;;;;;;;;;;5029364;28;20466;-64
2023/12/16 01:04:14;;;;;;;12.03;4.67;;;;;;;;;;5029429;28;20521;-64
2023/12/16 01:06:40;;;;;;;15.90;4.17;;;;;;;;;;5028018;28;20129;-63
2023/12/16 01:09:07;;;;;;;15.53;4.43;;;;;;;;;;5029402;28;20045;-64
2023/12/16 01:11:33;;;;;;;15.33;3.53;;;;;;;;;;5029291;28;20517;-63
2023/12/16 01:13:59;;;;;;;16.33;4.20;;;;;;;;;;5029153;28;20041;-64
2023/12/16 01:16:25;;;;;;;14.87;4.77;;;;;;;;;;5029275;28;20052;-64
2023/12/16 01:18:51;;;;;;;15.47;3.73;;;;;;;;;;5028600;28;20049;-64
2023/12/16 01:21:17;;;;;;;16.63;4.13;;;;;;;;;;5029310;28;20045;-64
2023/12/16 01:23:44;;;;;;;14.77;3.90;;;;;;;;;;5028797;28;20083;-64
2023/12/16 01:26:10;;;;;;;15.30;4.90;;;;;;;;;;5029272;28;20605;-64
2023/12/16 01:28:36;;;;;;;19.80;4.07;;;;;;;;;;5028889;28;20042;-64
2023/12/16 01:31:02;;;;;;;15.37;3.70;;;;;;;;;;5028694;28;20052;-64
2023/12/16 01:33:29;;;;;;;23.37;5.17;;;;;;;;;;5028750;28;20049;-63
2023/12/16 01:35:55;;;;;;;10.93;3.87;;;;;;;;;;5029082;28;20125;-63
2023/12/16 01:38:22;;;;;;;13.03;5.73;;;;;;;;;;5028700;28;20085;-63
2023/12/16 01:40:49;;;;;;;16.83;4.13;;;;;;;;;;5027791;28;20041;-63
2023/12/16 01:43:15;;;;;;;19.47;4.90;;;;;;;;;;5028659;28;20491;-64
2023/12/16 01:45:41;;;;;;;11.50;5.00;;;;;;;;;;5028757;28;20049;-64
2023/12/16 01:48:08;;;;;;;14.50;4.13;;;;;;;;;;5028646;28;20408;-64
2023/12/16 01:50:34;;;;;;;16.67;4.20;;;;;;;;;;5029123;28;20041;-64
2023/12/16 01:53:03;;;;;;;14.93;3.87;;;;;;;;;;5028677;28;20040;-64
2023/12/16 01:55:29;;;;;;;9.57;3.47;;;;;;;;;;5027507;28;20053;-64
2023/12/16 01:57:56;;;;;;;15.27;4.47;;;;;;;;;;5028538;28;20037;-63
2023/12/16 02:00:24;;;;;;;12.93;3.93;;;;;;;;;;5028873;28;20045;-63
2023/12/16 02:02:50;;;;;;;11.13;3.40;;;;;;;;;;5028834;28;20057;-64
2023/12/16 02:05:16;;;;;;;14.27;3.50;;;;;;;;;;5030282;28;20076;-64
2023/12/16 02:07:43;;;;;;;17.27;4.10;;;;;;;;;;5032673;28;20073;-63
2023/12/16 02:10:09;;;;;;;20.87;3.60;;;;;;;;;;5032817;28;20052;-64
2023/12/16 02:12:36;;;;;;;14.60;3.63;;;;;;;;;;5032239;28;20052;-64
2023/12/16 02:15:02;;;;;;;16.30;3.17;;;;;;;;;;5032768;28;20099;-64
2023/12/16 02:17:29;;;;;;;24.93;4.33;;;;;;;;;;5031847;28;20038;-64
2023/12/16 02:19:56;;;;;;;15.70;3.10;;;;;;;;;;5031891;28;20048;-63
2023/12/16 02:22:22;;;;;;;14.10;3.40;;;;;;;;;;5031618;28;20047;-64
2023/12/16 02:24:50;;;;;;;17.03;3.50;;;;;;;;;;5032348;28;20072;-64
2023/12/16 02:27:16;;;;;;;15.80;5.10;;;;;;;;;;5031045;28;20480;-64
2023/12/16 02:29:42;;;;;;;13.50;3.90;;;;;;;;;;5031954;28;20503;-64
2023/12/16 02:32:08;;;;;;;14.07;5.40;;;;;;;;;;5031273;28;20041;-64
2023/12/16 02:34:34;;;;;;;16.23;3.73;;;;;;;;;;5032176;28;20136;-64
2023/12/16 02:37:05;;;;;;;10.13;3.10;;;;;;;;;;5032032;28;20049;-63
2023/12/16 02:39:32;;;;;;;15.77;4.00;;;;;;;;;;5031964;28;20060;-63
2023/12/16 02:41:58;;;;;;;15.00;3.90;;;;;;;;;;5031237;28;20451;-63
2023/12/16 02:44:24;;;;;;;12.47;3.83;;;;;;;;;;5031208;28;20056;-63
2023/12/16 02:46:50;;;;;;;15.83;4.27;;;;;;;;;;5031840;28;20058;-64
2023/12/16 02:49:16;;;;;;;10.77;3.20;;;;;;;;;;5032055;28;20507;-64
2023/12/16 02:51:42;;;;;;;17.40;4.43;;;;;;;;;;5031333;28;20108;-63
2023/12/16 02:54:08;;;;;;;18.50;4.80;;;;;;;;;;5031433;28;20411;-64
2023/12/16 02:56:34;;;;;;;17.87;3.97;;;;;;;;;;5030600;28;20049;-64
2023/12/16 02:59:00;;;;;;;19.13;4.73;;;;;;;;;;5031899;28;20057;-64
2023/12/16 03:01:26;;;;;;;15.80;4.17;;;;;;;;;;5031706;28;20050;-64
2023/12/16 03:03:52;;;;;;;16.37;3.90;;;;;;;;;;5031455;28;20088;-64
2023/12/16 03:06:18;;;;;;;13.50;3.90;;;;;;;;;;5031217;28;20073;-63
2023/12/16 03:08:44;;;;;;;15.30;4.50;;;;;;;;;;5030850;28;20080;-64
2023/12/16 03:11:10;;;;;;;14.13;3.23;;;;;;;;;;5031553;28;20097;-64
2023/12/16 03:13:36;;;;;;;30.33;5.37;;;;;;;;;;5031725;28;20061;-63
2023/12/16 03:16:03;;;;;;;17.93;4.43;;;;;;;;;;5031079;28;20427;-63
2023/12/16 03:18:29;;;;;;;15.10;3.40;;;;;;;;;;5030080;28;20041;-63
2023/12/16 03:20:55;;;;;;;13.90;3.50;;;;;;;;;;5031438;28;20049;-64
2023/12/16 03:23:22;;;;;;;19.77;4.23;;;;;;;;;;5031108;28;20136;-64
2023/12/16 03:25:48;;;;;;;18.70;3.70;;;;;;;;;;5031132;28;20199;-63
2023/12/16 03:28:16;;;;;;;18.97;4.10;;;;;;;;;;5031089;28;20551;-63
2023/12/16 03:30:42;;;;;;;25.03;4.53;;;;;;;;;;5030935;28;20111;-64
2023/12/16 03:33:08;;;;;;;18.37;5.00;;;;;;;;;;5031173;28;20053;-63
2023/12/16 03:35:34;;;;;;;16.80;3.60;;;;;;;;;;5030519;28;20047;-64
2023/12/16 03:38:01;;;;;;;22.43;4.53;;;;;;;;;;5030567;28;20125;-64
2023/12/16 03:40:27;;;;;;;8.47;3.07;;;;;;;;;;5031020;28;20049;-64
2023/12/16 03:42:53;;;;;;;16.50;4.23;;;;;;;;;;5030589;28;20062;-64
2023/12/16 03:45:19;;;;;;;20.73;4.40;;;;;;;;;;5030399;28;20045;-64
2023/12/16 03:47:46;;;;;;;19.30;4.50;;;;;;;;;;5030790;28;20045;-63
2023/12/16 03:50:12;;;;;;;24.43;5.27;;;;;;;;;;5030657;28;20730;-64
2023/12/16 03:52:38;;;;;;;19.47;3.67;;;;;;;;;;5029657;28;20428;-64
2023/12/16 03:55:04;;;;;;;19.50;3.83;;;;;;;;;;5030520;28;20048;-64
2023/12/16 03:57:32;;;;;;;17.37;4.20;;;;;;;;;;5030269;28;20502;-63
2023/12/16 03:59:58;;;;;;;15.73;3.60;;;;;;;;;;5030350;28;20084;-63
2023/12/16 04:02:24;;;;;;;14.10;3.50;;;;;;;;;;5030447;28;20120;-64
2023/12/16 04:04:50;;;;;;;18.57;4.07;;;;;;;;;;5029658;28;20041;-64
2023/12/16 04:07:17;;;;;;;28.33;4.70;;;;;;;;;;5030029;28;20049;-64
2023/12/16 04:09:44;;;;;;;29.40;5.00;;;;;;;;;;5029989;28;20042;-64
2023/12/16 04:12:10;;;;;;;20.97;3.43;;;;;;;;;;5030593;28;20049;-63
2023/12/16 04:14:39;;;;;;;16.27;3.20;;;;;;;;;;5029805;28;20194;-64
2023/12/16 04:17:06;;;;;;;20.43;3.60;;;;;;;;;;5030442;28;20411;-64
2023/12/16 04:19:32;;;;;;;11.70;3.33;;;;;;;;;;5030261;28;20037;-64
2023/12/16 04:21:58;;;;;;;21.73;3.50;;;;;;;;;;5030401;28;20053;-64
2023/12/16 04:24:24;;;;;;;16.60;4.27;;;;;;;;;;5030320;28;20059;-64
2023/12/16 04:26:50;;;;;;;15.77;4.10;;;;;;;;;;5028613;28;20427;-64
2023/12/16 04:29:16;;;;;;;18.17;3.47;;;;;;;;;;5030169;28;20041;-64
2023/12/16 04:31:42;;;;;;;15.37;5.23;;;;;;;;;;5029744;28;20045;-64
2023/12/16 04:34:08;;;;;;;21.13;3.67;;;;;;;;;;5029540;28;20048;-64
2023/12/16 04:36:34;;;;;;;16.37;4.53;;;;;;;;;;5029875;28;20045;-64
2023/12/16 04:39:07;;;;;;;14.23;3.83;;;;;;;;;;5029684;28;20187;-63
2023/12/16 04:41:33;;;;;;;22.40;4.73;;;;;;;;;;5029284;28;20045;-63
2023/12/16 04:43:59;;;;;;;17.50;3.30;;;;;;;;;;5029580;28;20058;-63
2023/12/16 04:46:25;;;;;;;17.67;3.80;;;;;;;;;;5029392;28;20049;-64
2023/12/16 04:48:51;;;;;;;24.50;4.60;;;;;;;;;;5029739;28;20041;-64
2023/12/16 04:51:17;;;;;;;19.90;4.07;;;;;;;;;;5029422;28;20049;-63
2023/12/16 04:53:43;;;;;;;19.60;5.67;;;;;;;;;;5029264;28;20049;-63
2023/12/16 04:56:09;;;;;;;11.23;3.50;;;;;;;;;;5029916;28;20503;-64
2023/12/16 04:58:35;;;;;;;22.17;4.63;;;;;;;;;;5029255;28;20730;-63
2023/12/16 05:01:01;;;;;;;25.23;5.00;;;;;;;;;;5028756;28;20041;-64
2023/12/16 05:03:27;;;;;;;20.77;5.77;;;;;;;;;;5029492;28;20045;-64
2023/12/16 05:05:53;;;;;;;22.47;4.57;;;;;;;;;;5028993;28;20049;-64
2023/12/16 05:08:20;;;;;;;17.73;4.97;;;;;;;;;;5029950;28;20410;-64
2023/12/16 05:10:47;;;;;;;15.23;4.77;;;;;;;;;;5029429;28;20041;-64
2023/12/16 05:13:16;;;;;;;18.37;4.20;;;;;;;;;;5029428;28;20046;-64
2023/12/16 05:15:43;;;;;;;26.23;6.27;;;;;;;;;;5028800;28;20128;-63
2023/12/16 05:18:09;;;;;;;18.97;4.47;;;;;;;;;;5029123;28;20060;-63
2023/12/16 05:20:35;;;;;;;14.60;4.53;;;;;;;;;;5029193;28;20096;-63
2023/12/16 05:23:03;;;;;;;20.20;5.63;;;;;;;;;;5029107;28;20132;-64
2023/12/16 05:25:29;;;;;;;23.73;5.03;;;;;;;;;;5028974;28;20566;-63
2023/12/16 05:27:55;;;;;;;17.43;4.20;;;;;;;;;;5027980;28;20053;-64
2023/12/16 05:30:22;;;;;;;18.83;4.57;;;;;;;;;;5028088;28;20047;-64
2023/12/16 05:32:48;;;;;;;15.37;4.23;;;;;;;;;;5028312;28;20112;-64
2023/12/16 05:35:14;;;;;;;20.37;6.20;;;;;;;;;;5027298;28;20478;-64
2023/12/16 05:37:40;;;;;;;20.63;4.63;;;;;;;;;;5028028;28;20088;-64
2023/12/16 05:40:07;;;;;;;13.33;4.47;;;;;;;;;;5028095;28;20127;-63
2023/12/16 05:42:33;;;;;;;20.77;5.23;;;;;;;;;;5027738;28;20135;-62
2023/12/16 05:44:59;;;;;;;26.40;5.93;;;;;;;;;;5028164;28;20081;-62
2023/12/16 05:47:25;;;;;;;27.23;5.83;;;;;;;;;;5027092;28;20056;-63
2023/12/16 05:49:51;;;;;;;26.77;5.03;;;;;;;;;;5028055;28;20100;-62
2023/12/16 05:52:17;;;;;;;20.43;5.20;;;;;;;;;;5027517;28;20412;-63
2023/12/16 05:54:43;;;;;;;27.83;5.90;;;;;;;;;;5027777;28;20160;-63
2023/12/16 05:57:09;;;;;;;23.90;5.43;;;;;;;;;;5027661;28;20515;-63
2023/12/16 05:59:35;;;;;;;29.20;7.10;;;;;;;;;;5026559;28;20414;-62
2023/12/16 06:02:01;;;;;;;24.50;5.87;;;;;;;;;;5028138;28;20496;-63
2023/12/16 06:04:27;;;;;;;26.70;6.97;;;;;;;;;;5027361;28;20056;-63
2023/12/16 06:06:54;;;;;;;25.43;6.10;;;;;;;;;;5028230;28;20132;-63
2023/12/16 06:09:20;;;;;;;31.00;6.40;;;;;;;;;;5027617;28;20080;-63
2023/12/16 06:11:46;;;;;;;22.93;5.43;;;;;;;;;;5028148;28;20529;-63
2023/12/16 06:14:12;;;;;;;28.93;7.23;;;;;;;;;;5028278;28;20495;-63
2023/12/16 06:16:38;;;;;;;31.40;8.53;;;;;;;;;;5027160;28;20045;-63
2023/12/16 06:19:04;;;;;;;24.60;6.10;;;;;;;;;;5027491;28;20046;-62
2023/12/16 06:21:30;;;;;;;24.50;7.23;;;;;;;;;;5028035;28;20045;-62
2023/12/16 06:24:00;;;;;;;31.03;8.10;;;;;;;;;;5027885;28;20045;-62
2023/12/16 06:26:26;;;;;;;28.90;7.77;;;;;;;;;;5027584;28;20128;-63
2023/12/16 06:28:52;;;;;;;31.77;7.43;;;;;;;;;;5026974;28;20048;-62
2023/12/16 06:31:19;;;;;;;21.63;7.27;;;;;;;;;;5026883;28;20140;-62
2023/12/16 06:33:45;;;;;;;22.53;6.77;;;;;;;;;;5027638;28;20041;-63
2023/12/16 06:36:11;;;;;;;25.03;7.67;;;;;;;;;;5027626;28;20050;-63
2023/12/16 06:38:37;;;;;;;28.47;8.73;;;;;;;;;;5027751;28;20081;-63
2023/12/16 06:41:04;;;;;;;28.97;8.50;;;;;;;;;;5027667;28;20123;-63
2023/12/16 06:43:30;;;;;;;29.53;7.60;;;;;;;;;;5027360;28;20111;-63
2023/12/16 06:45:56;;;;;;;30.50;7.40;;;;;;;;;;5027448;28;20049;-62
2023/12/16 06:48:22;;;;;;;36.10;9.00;;;;;;;;;;5027186;28;20072;-62
2023/12/16 06:50:51;;;;;;;34.97;8.13;;;;;;;;;;5028613;28;20077;-62
2023/12/16 06:53:18;;;;;;;28.43;7.30;;;;;;;;;;5031167;28;20053;-63
2023/12/16 06:55:44;;;;;;;27.37;8.00;;;;;;;;;;5031087;28;20045;-63
2023/12/16 06:58:10;;;;;;;29.17;8.27;;;;;;;;;;5030432;28;20504;-63
2023/12/16 07:00:36;;;;;;;28.93;8.63;;;;;;;;;;5031156;28;20044;-63
2023/12/16 07:03:02;;;;;;;30.90;7.93;;;;;;;;;;5030997;28;20052;-62
2023/12/16 07:05:28;;;;;;;34.03;8.07;;;;;;;;;;5030942;28;20049;-62
2023/12/16 07:07:54;;;;;;;29.50;8.63;;;;;;;;;;5029197;28;20049;-63
2023/12/16 07:10:20;;;;;;;30.27;8.87;;;;;;;;;;5031034;28;20065;-62
2023/12/16 07:12:46;;;;;;;37.40;8.57;;;;;;;;;;5030749;28;20145;-63
2023/12/16 07:15:13;;;;;;;40.90;8.90;;;;;;;;;;5030942;28;20045;-63
2023/12/16 07:17:40;;;;;;;31.93;10.03;;;;;;;;;;5029499;28;20060;-62
2023/12/16 07:20:07;;;;;;;31.47;8.73;;;;;;;;;;5030654;28;20149;-63
2023/12/16 07:22:33;;;;;;;36.57;9.03;;;;;;;;;;5030903;28;20483;-63
2023/12/16 07:24:59;;;;;;;44.57;10.27;;;;;;;;;;5030395;28;20087;-62
2023/12/16 07:27:25;;;;;;;33.40;9.37;;;;;;;;;;5029219;28;20046;-63
2023/12/16 07:29:52;;;;;;;35.23;10.33;;;;;;;;;;5028027;28;20377;-63
2023/12/16 07:32:18;;;;;;;34.90;8.97;;;;;;;;;;5030436;28;20049;-63
2023/12/16 07:34:45;;;;;;;42.23;10.77;;;;;;;;;;5027581;28;20134;-63
2023/12/16 07:37:11;;;;;;;40.17;11.17;;;;;;;;;;5030304;28;20056;-62
2023/12/16 07:39:37;;;;;;;47.53;11.20;;;;;;;;;;5030576;28;20419;-63
2023/12/16 07:42:03;;;;;;;44.00;10.87;;;;;;;;;;5030552;28;20319;-63
2023/12/16 07:44:29;;;;;;;35.27;9.17;;;;;;;;;;5029728;28;20514;-63
2023/12/16 07:46:55;;;;;;;28.83;9.70;;;;;;;;;;5030996;28;20554;-63
2023/12/16 07:49:25;;;;;;;29.47;9.57;;;;;;;;;;5030395;28;20053;-63
2023/12/16 07:51:54;;;;;;;36.57;9.07;;;;;;;;;;5029547;28;20049;-62
2023/12/16 07:54:30;;;;;;;35.20;11.00;;;;;;;;;;5031435;28;20077;-63
2023/12/16 07:56:56;;;;;;;37.47;10.87;;;;;;;;;;5029911;28;20046;-63
2023/12/16 07:59:22;;;;;;;30.67;10.07;;;;;;;;;;5029844;28;20049;-62
2023/12/16 08:01:53;;;;;;;45.73;10.40;;;;;;;;;;5027521;28;20045;-62
2023/12/16 08:04:19;;;;;;;38.73;11.20;;;;;;;;;;5019758;28;20051;-63
2023/12/16 08:06:46;;;;;;;38.00;10.70;;;;;;;;;;5029213;28;20641;-63
2023/12/16 08:09:12;;;;;;;37.80;9.27;;;;;;;;;;5029867;28;20045;-63
2023/12/16 08:11:38;;;;;;;23.90;8.97;;;;;;;;;;5029853;28;20052;-62
2023/12/16 08:14:06;;;;;;;33.00;8.60;;;;;;;;;;5028540;28;20467;-63
2023/12/16 08:16:32;;;;;;;29.97;9.27;;;;;;;;;;5029155;28;20052;-63
2023/12/16 08:18:58;;;;;;;43.13;10.83;;;;;;;;;;5029631;28;20556;-63
2023/12/16 08:21:24;;;;;;;24.60;8.70;;;;;;;;;;5029369;28;20507;-63
2023/12/16 08:23:50;;;;;;;32.23;7.83;;;;;;;;;;5029392;28;20045;-63
2023/12/16 08:26:16;;;;;;;35.50;9.63;;;;;;;;;;5028916;28;20041;-63
2023/12/16 08:28:42;;;;;;;33.53;8.97;;;;;;;;;;5029199;28;20045;-62
2023/12/16 08:31:08;;;;;;;30.43;8.87;;;;;;;;;;5028845;28;20089;-63
2023/12/16 08:33:35;;;;;;;25.40;8.17;;;;;;;;;;5027688;28;20057;-63
2023/12/16 08:36:01;;;;;;;27.80;7.67;;;;;;;;;;5029854;28;20095;-63
2023/12/16 08:38:28;;;;;;;28.47;7.67;;;;;;;;;;5029084;28;20053;-62
2023/12/16 08:40:57;;;;;;;29.13;8.13;;;;;;;;;;5029025;28;20055;-63
2023/12/16 08:43:23;;;;;;;37.77;9.33;;;;;;;;;;5029458;28;20099;-62
2023/12/16 08:45:49;;;;;;;35.20;8.00;;;;;;;;;;5028677;28;20115;-63
2023/12/16 08:48:15;;;;;;;30.53;7.70;;;;;;;;;;5029078;28;20041;-63
2023/12/16 08:50:42;;;;;;;27.67;8.70;;;;;;;;;;5029044;28;20049;-63
2023/12/16 08:53:08;;;;;;;37.57;8.30;;;;;;;;;;5029408;28;20037;-63
2023/12/16 08:55:34;;;;;;;35.90;8.40;;;;;;;;;;5028822;28;20053;-62
2023/12/16 08:58:00;;;;;;;23.90;7.67;;;;;;;;;;5028991;28;20086;-62
2023/12/16 09:00:26;;;;;;;29.83;8.60;;;;;;;;;;5028129;28;20558;-62
2023/12/16 09:02:52;;;;;;;29.27;8.37;;;;;;;;;;5028897;28;20128;-62
2023/12/16 09:05:19;;;;;;;30.67;7.27;;;;;;;;;;5027174;28;20049;-63
2023/12/16 09:07:45;;;;;;;27.43;8.77;;;;;;;;;;5035119;28;20049;-62
2023/12/16 09:10:13;;;;;;;27.80;7.40;;;;;;;;;;5035447;28;20049;-62
2023/12/16 09:12:39;;;;;;;33.20;8.63;;;;;;;;;;5048749;28;20045;-62
2023/12/16 09:15:05;;;;;;;30.10;8.10;;;;;;;;;;5037721;28;20072;-63
2023/12/16 09:17:32;;;;;;;29.80;8.43;;;;;;;;;;5029162;28;20064;-63
2023/12/16 09:19:58;;;;;;;34.73;7.73;;;;;;;;;;5028394;28;20045;-63
2023/12/16 09:22:24;;;;;;;27.53;8.10;;;;;;;;;;5028688;28;20059;-62
2023/12/16 09:24:50;;;;;;;27.60;7.73;;;;;;;;;;5028884;28;20045;-62
2023/12/16 09:27:17;;;;;;;28.80;8.07;;;;;;;;;;5033029;28;20408;-62
2023/12/16 09:29:43;;;;;;;29.23;7.90;;;;;;;;;;5040585;28;20046;-63
2023/12/16 09:32:09;;;;;;;29.77;8.87;;;;;;;;;;5037233;28;20114;-62
2023/12/16 09:34:35;;;;;;;26.70;7.70;;;;;;;;;;5037813;28;20137;-62
2023/12/16 09:37:01;;;;;;;25.33;7.83;;;;;;;;;;5036717;28;20056;-63
2023/12/16 09:39:27;;;;;;;33.57;8.67;;;;;;;;;;5034943;28;20046;-62
2023/12/16 09:41:56;;;;;;;33.10;7.80;;;;;;;;;;5033873;28;20045;-63
2023/12/16 09:44:24;;;;;;;33.27;7.80;;;;;;;;;;5037093;28;20057;-62
2023/12/16 09:46:50;;;;;;;30.10;7.77;;;;;;;;;;5034188;28;20090;-63
2023/12/16 09:49:16;;;;;;;33.57;8.97;;;;;;;;;;5029723;28;20549;-63
2023/12/16 09:51:43;;;;;;;23.87;7.60;;;;;;;;;;5038067;28;20573;-63
2023/12/16 09:54:09;;;;;;;30.80;8.17;;;;;;;;;;5039387;28;20517;-63
2023/12/16 09:56:35;;;;;;;35.30;7.70;;;;;;;;;;5036221;28;20045;-63
2023/12/16 09:59:03;;;;;;;31.37;8.63;;;;;;;;;;5039653;28;20049;-63
2023/12/16 10:01:29;;;;;;;34.47;8.93;;;;;;;;;;5036193;28;20411;-63
2023/12/16 10:03:55;;;;;;;33.33;9.17;;;;;;;;;;5036080;28;20428;-62
2023/12/16 10:06:21;;;;;;;35.40;9.20;;;;;;;;;;5032177;28;20041;-62
2023/12/16 10:08:48;;;;;;;40.53;9.70;;;;;;;;;;5034714;28;20091;-62
2023/12/16 10:11:14;;;;;;;31.13;10.40;;;;;;;;;;5037558;28;20239;-62
2023/12/16 10:13:55;;;;;;;38.03;11.03;;;;;;;;;;5038612;28;20080;-63
2023/12/16 10:16:22;;;;;;;57.03;12.90;;;;;;;;;;5037967;28;20045;-62
2023/12/16 10:18:55;;;;;;;43.37;11.63;;;;;;;;;;5034463;28;20063;-63
2023/12/16 10:21:22;;;;;;;45.43;12.30;;;;;;;;;;5039162;28;20045;-62
2023/12/16 10:23:48;;;;;;;48.20;12.40;;;;;;;;;;5036336;28;20048;-63
2023/12/16 10:26:14;;;;;;;52.57;13.97;;;;;;;;;;5032850;28;20049;-63
2023/12/16 10:28:45;;;;;;;51.80;13.43;;;;;;;;;;5038946;28;20049;-62
2023/12/16 10:31:11;;;;;;;55.03;14.63;;;;;;;;;;5037688;28;20058;-62
2023/12/16 10:33:37;;;;;;;54.67;16.60;;;;;;;;;;5040567;28;20525;-62
2023/12/16 10:36:03;;;;;;;50.80;17.30;;;;;;;;;;5038647;28;20045;-62
2023/12/16 10:38:29;;;;;;;67.83;18.07;;;;;;;;;;5041824;28;20040;-62
2023/12/16 10:40:55;;;;;;;80.40;19.97;;;;;;;;;;5038364;28;20042;-62
2023/12/16 10:43:21;;;;;;;68.53;20.07;;;;;;;;;;5032379;28;20053;-63
2023/12/16 10:45:48;;;;;;;80.87;22.00;;;;;;;;;;5036854;28;20043;-63
2023/12/16 10:48:16;;;;;;;72.27;24.37;;;;;;;;;;5042068;28;20521;-63
2023/12/16 10:50:47;;;;;;;75.47;24.40;;;;;;;;;;5039207;28;20052;-63
2023/12/16 10:53:18;;;;;;;73.20;24.73;;;;;;;;;;5035508;28;20052;-63
2023/12/16 10:55:44;;;;;;;82.07;24.43;;;;;;;;;;5035436;28;20053;-63
2023/12/16 10:58:19;;;;;;;98.17;28.70;;;;;;;;;;5043161;28;20056;-63
2023/12/16 11:00:47;;;;;;;100.67;31.27;;;;;;;;;;5036902;28;20060;-63
2023/12/16 11:03:24;;;;;;;92.80;28.50;;;;;;;;;;5039867;28;20048;-63
2023/12/16 11:05:51;;;;;;;95.97;30.67;;;;;;;;;;5039533;28;20049;-63
2023/12/16 11:08:18;;;;;;;93.23;29.33;;;;;;;;;;5044656;28;20135;-63
2023/12/16 11:10:44;;;;;;;90.57;29.30;;;;;;;;;;5041183;28;20059;-63
2023/12/16 11:13:11;;;;;;;115.87;34.50;;;;;;;;;;5040703;28;20056;-63
2023/12/16 11:15:37;;;;;;;109.97;34.30;;;;;;;;;;5037591;28;20048;-63
2023/12/16 11:18:08;;;;;;;126.60;34.37;;;;;;;;;;5036077;28;20037;-63
2023/12/16 11:20:54;;;;;;;97.33;33.47;;;;;;;;;;5039930;28;20048;-63
2023/12/16 11:23:23;;;;;;;118.80;37.43;;;;;;;;;;5040592;28;20056;-63
2023/12/16 11:25:50;;;;;;;98.57;35.10;;;;;;;;;;5035954;28;20046;-63
2023/12/16 11:28:18;;;;;;;110.40;35.50;;;;;;;;;;5035416;28;20045;-62
2023/12/16 11:30:45;;;;;;;106.00;34.43;;;;;;;;;;5035436;28;20049;-63
2023/12/16 11:33:11;;;;;;;105.37;35.63;;;;;;;;;;5035648;28;20096;-63
2023/12/16 11:35:37;;;;;;;105.30;36.83;;;;;;;;;;5037150;28;20110;-63
2023/12/16 11:38:07;;;;;;;109.67;36.77;;;;;;;;;;5038693;28;20593;-63
2023/12/16 11:40:42;;;;;;;122.00;37.13;;;;;;;;;;5033030;28;20053;-63
2023/12/16 11:43:09;;;;;;;130.00;39.20;;;;;;;;;;5037966;28;20136;-62
2023/12/16 11:45:46;;;;;;;106.10;35.00;;;;;;;;;;5036605;28;20043;-63
2023/12/16 11:48:16;;;;;;;118.23;37.47;;;;;;;;;;5038249;28;20048;-62
2023/12/16 11:50:46;;;;;;;123.27;37.07;;;;;;;;;;5034042;28;20136;-63
2023/12/16 11:53:13;;;;;;;132.70;38.03;;;;;;;;;;5038765;28;20415;-63
2023/12/16 11:55:39;;;;;;;128.93;38.53;;;;;;;;;;5036501;28;20051;-63
2023/12/16 11:58:05;;;;;;;110.87;35.93;;;;;;;;;;5033798;28;20122;-63
2023/12/16 12:00:32;;;;;;;117.63;35.40;;;;;;;;;;5035603;28;20068;-63
2023/12/16 12:03:01;;;;;;;118.70;36.43;;;;;;;;;;5036663;28;20113;-63
2023/12/16 12:05:28;;;;;;;120.33;38.70;;;;;;;;;;5036240;28;20530;-64
2023/12/16 12:07:54;;;;;;;107.40;35.87;;;;;;;;;;5042149;28;20072;-63
2023/12/16 12:10:20;;;;;;;121.63;38.53;;;;;;;;;;5035735;28;20052;-63
2023/12/16 12:12:47;;;;;;;97.20;34.03;;;;;;;;;;5036579;28;20037;-63
2023/12/16 12:15:13;;;;;;;98.50;31.77;;;;;;;;;;5034288;28;20041;-63
2023/12/16 12:17:39;;;;;;;106.53;36.80;;;;;;;;;;5038141;28;20518;-64
2023/12/16 12:20:06;;;;;;;94.97;35.07;;;;;;;;;;5036856;28;20045;-64
2023/12/16 12:22:33;;;;;;;148.87;42.47;;;;;;;;;;5035964;28;20136;-63
2023/12/16 12:24:59;;;;;;;109.93;37.03;;;;;;;;;;5042363;28;20081;-64
2023/12/16 12:27:25;;;;;;;96.60;35.37;;;;;;;;;;5038270;28;20518;-64
2023/12/16 12:30:01;;;;;;;109.93;37.60;;;;;;;;;;5037978;28;20052;-64
2023/12/16 12:32:28;;;;;;;106.87;35.43;;;;;;;;;;5037037;28;20033;-63
2023/12/16 12:35:11;;;;;;;104.13;37.20;;;;;;;;;;5035481;28;20041;-63
2023/12/16 12:37:37;;;;;;;115.07;37.53;;;;;;;;;;5037918;28;20046;-63
2023/12/16 12:40:12;;;;;;;117.83;36.13;;;;;;;;;;5035140;28;20102;-63
2023/12/16 12:42:45;;;;;;;105.20;37.53;;;;;;;;;;5038054;28;20487;-63
2023/12/16 12:45:23;;;;;;;95.60;34.65;;;;;;;;;;5034915;28;20049;-63
2023/12/16 12:47:49;;;;;;;112.87;36.07;;;;;;;;;;5032912;28;20048;-63
2023/12/16 12:50:21;;;;;;;94.03;34.23;;;;;;;;;;5032976;28;20042;-63
2023/12/16 12:52:47;;;;;;;99.67;33.83;;;;;;;;;;5038718;28;20128;-63
2023/12/16 12:55:13;;;;;;;120.33;36.40;;;;;;;;;;5034159;28;20502;-64
2023/12/16 12:57:39;;;;;;;91.83;33.70;;;;;;;;;;5038340;28;20072;-63
2023/12/16 13:00:07;;;;;;;116.27;36.90;;;;;;;;;;5039667;28;20045;-63
2023/12/16 13:02:33;;;;;;;108.87;35.80;;;;;;;;;;5036079;28;20511;-64
2023/12/16 13:04:59;;;;;;;92.63;35.33;;;;;;;;;;5035078;28;20507;-64
2023/12/16 13:07:25;;;;;;;115.57;37.40;;;;;;;;;;5033326;28;20053;-64
2023/12/16 13:09:51;;;;;;;130.47;39.50;;;;;;;;;;5037201;28;20102;-64
2023/12/16 13:12:17;;;;;;;106.70;35.87;;;;;;;;;;5039014;28;20068;-64
2023/12/16 13:14:44;;;;;;;136.07;40.93;;;;;;;;;;5034967;28;20041;-63
2023/12/16 13:17:10;;;;;;;105.23;37.00;;;;;;;;;;5034491;28;20445;-64
2023/12/16 13:19:36;;;;;;;122.13;37.03;;;;;;;;;;5034419;28;20136;-65
2023/12/16 13:22:02;;;;;;;95.43;32.83;;;;;;;;;;5037917;28;20472;-65
2023/12/16 13:24:30;;;;;;;115.33;36.17;;;;;;;;;;5036346;28;20523;-65
2023/12/16 13:26:57;;;;;;;118.80;36.80;;;;;;;;;;5040150;28;20053;-65
2023/12/16 13:29:23;;;;;;;153.90;41.07;;;;;;;;;;5034048;28;20049;-66
2023/12/16 13:31:49;;;;;;;105.23;33.67;;;;;;;;;;5041404;28;20392;-65
2023/12/16 13:34:15;;;;;;;125.53;36.43;;;;;;;;;;5036104;28;20124;-65
2023/12/16 13:36:41;;;;;;;105.67;33.57;;;;;;;;;;5038561;28;20029;-65
2023/12/16 13:39:07;;;;;;;114.27;35.27;;;;;;;;;;5038802;28;20132;-66
2023/12/16 13:41:33;;;;;;;105.00;36.23;;;;;;;;;;5034303;28;20041;-66
2023/12/16 13:43:59;;;;;;;109.93;36.13;;;;;;;;;;5033866;28;20060;-65
2023/12/16 13:46:26;;;;;;;132.17;38.43;;;;;;;;;;5034137;28;20473;-65
2023/12/16 13:48:52;;;;;;;77.67;27.83;;;;;;;;;;5038667;28;20044;-65
2023/12/16 13:51:18;;;;;;;84.50;27.87;;;;;;;;;;5033615;28;20041;-65
2023/12/16 13:53:44;;;;;;;79.93;26.40;;;;;;;;;;5034421;28;20049;-66
2023/12/16 13:56:10;;;;;;;49.47;19.97;;;;;;;;;;5034306;28;20041;-66
2023/12/16 13:58:36;;;;;;;51.83;19.83;;;;;;;;;;5029650;28;20045;-66
2023/12/16 14:01:02;;;;;;;64.53;21.13;;;;;;;;;;5039911;28;20056;-66
2023/12/16 14:03:28;;;;;;;62.90;21.90;;;;;;;;;;5037588;28;20037;-66
2023/12/16 14:05:54;;;;;;;55.17;21.60;;;;;;;;;;5036472;28;20041;-66
2023/12/16 14:08:20;;;;;;;73.23;24.50;;;;;;;;;;5040367;28;20076;-66
2023/12/16 14:10:47;;;;;;;61.13;23.27;;;;;;;;;;5038551;28;20084;-66
2023/12/16 14:13:13;;;;;;;67.43;21.80;;;;;;;;;;5035682;28;20056;-66
2023/12/16 14:15:39;;;;;;;73.27;24.80;;;;;;;;;;5038478;28;20582;-66
2023/12/16 14:18:05;;;;;;;67.47;25.93;;;;;;;;;;5041443;28;20044;-66
2023/12/16 14:20:31;;;;;;;87.23;28.30;;;;;;;;;;5045017;28;20040;-66